sensor_id;sensor_type;location;lat;lon;timestamp;P1;durP1;ratioP1;P2;durP2;ratioP2
7621;SDS011;3852;52.284;8.032;2022-12-07T00:01:38;46.37;;;24.73;;
7621;SDS011;3852;52.284;8.032;2022-12-07T00:04:07;43.13;;;23.53;;
7621;SDS011;3852;52.284;8.032;2022-12-07T00:06:37;40.57;;;23.03;;
7621;SDS011;3852;52.284;8.032;2022-12-07T00:09:06;47.50;;;25.57;;
7621;SDS011;3852;52.284;8.032;2022-12-07T00:11:36;41.57;;;23.87;;
7621;SDS011;3852;52.284;8.032;2022-12-07T00:14:03;44.20;;;23.53;;
7621;SDS011;3852;52.284;8.032;2022-12-07T00:16:32;42.47;;;23.43;;
7621;SDS011;3852;52.284;8.032;2022-12-07T00:18:59;40.07;;;21.83;;
7621;SDS011;3852;52.284;8.032;2022-12-07T00:21:29;35.87;;;19.53;;
7621;SDS011;3852;52.284;8.032;2022-12-07T00:23:58;37.33;;;20.57;;
7621;SDS011;3852;52.284;8.032;2022-12-07T00:26:32;36.53;;;20.00;;
7621;SDS011;3852;52.284;8.032;2022-12-07T00:29:04;35.60;;;20.80;;
7621;SDS011;3852;52.284;8.032;2022-12-07T00:31:38;33.03;;;20.40;;
7621;SDS011;3852;52.284;8.032;2022-12-07T00:34:04;35.13;;;19.90;;
7621;SDS011;3852;52.284;8.032;2022-12-07T00:36:31;34.80;;;20.00;;
7621;SDS011;3852;52.284;8.032;2022-12-07T00:38:58;33.80;;;19.60;;
7621;SDS011;3852;52.284;8.032;2022-12-07T00:41:26;31.93;;;19.60;;
7621;SDS011;3852;52.284;8.032;2022-12-07T00:43:53;34.90;;;19.30;;
7621;SDS011;3852;52.284;8.032;2022-12-07T00:46:19;35.80;;;19.20;;
7621;SDS011;3852;52.284;8.032;2022-12-07T00:48:46;33.27;;;18.37;;
7621;SDS011;3852;52.284;8.032;2022-12-07T00:51:13;32.73;;;19.00;;
7621;SDS011;3852;52.284;8.032;2022-12-07T00:53:41;32.77;;;18.90;;
7621;SDS011;3852;52.284;8.032;2022-12-07T00:56:08;31.07;;;18.03;;
7621;SDS011;3852;52.284;8.032;2022-12-07T00:58:40;31.53;;;18.67;;
7621;SDS011;3852;52.284;8.032;2022-12-07T01:01:06;31.60;;;18.83;;
7621;SDS011;3852;52.284;8.032;2022-12-07T01:03:34;31.17;;;18.00;;
7621;SDS011;3852;52.284;8.032;2022-12-07T01:06:01;28.50;;;17.23;;
7621;SDS011;3852;52.284;8.032;2022-12-07T01:08:27;28.67;;;17.27;;
7621;SDS011;3852;52.284;8.032;2022-12-07T01:11:01;27.03;;;15.97;;
7621;SDS011;3852;52.284;8.032;2022-12-07T01:13:33;24.20;;;14.43;;
7621;SDS011;3852;52.284;8.032;2022-12-07T01:16:00;24.43;;;14.67;;
7621;SDS011;3852;52.284;8.032;2022-12-07T01:18:30;23.97;;;14.37;;
7621;SDS011;3852;52.284;8.032;2022-12-07T01:21:00;24.77;;;14.67;;
7621;SDS011;3852;52.284;8.032;2022-12-07T01:23:47;22.57;;;13.93;;
7621;SDS011;3852;52.284;8.032;2022-12-07T01:26:15;25.07;;;14.03;;
7621;SDS011;3852;52.284;8.032;2022-12-07T01:28:44;23.57;;;14.20;;
7621;SDS011;3852;52.284;8.032;2022-12-07T01:31:15;21.57;;;13.73;;
7621;SDS011;3852;52.284;8.032;2022-12-07T01:33:45;21.93;;;13.40;;
7621;SDS011;3852;52.284;8.032;2022-12-07T01:38:56;20.93;;;13.63;;
7621;SDS011;3852;52.284;8.032;2022-12-07T01:41:26;20.30;;;13.53;;
7621;SDS011;3852;52.284;8.032;2022-12-07T01:44:09;19.90;;;13.30;;
7621;SDS011;3852;52.284;8.032;2022-12-07T01:50:03;20.83;;;12.17;;
7621;SDS011;3852;52.284;8.032;2022-12-07T01:52:16;22.83;;;12.90;;
7621;SDS011;3852;52.284;8.032;2022-12-07T01:54:49;20.07;;;12.43;;
7621;SDS011;3852;52.284;8.032;2022-12-07T01:57:18;17.53;;;12.17;;
7621;SDS011;3852;52.284;8.032;2022-12-07T01:59:45;23.70;;;12.37;;
7621;SDS011;3852;52.284;8.032;2022-12-07T02:02:28;21.27;;;12.73;;
7621;SDS011;3852;52.284;8.032;2022-12-07T02:05:01;16.90;;;12.10;;
7621;SDS011;3852;52.284;8.032;2022-12-07T02:07:29;19.37;;;11.63;;
7621;SDS011;3852;52.284;8.032;2022-12-07T02:10:11;18.10;;;11.70;;
7621;SDS011;3852;52.284;8.032;2022-12-07T02:12:54;17.97;;;11.57;;
7621;SDS011;3852;52.284;8.032;2022-12-07T02:15:28;19.77;;;10.87;;
7621;SDS011;3852;52.284;8.032;2022-12-07T02:30:19;16.77;;;10.00;;
7621;SDS011;3852;52.284;8.032;2022-12-07T02:32:57;15.20;;;9.13;;
7621;SDS011;3852;52.284;8.032;2022-12-07T02:35:51;12.67;;;8.87;;
7621;SDS011;3852;52.284;8.032;2022-12-07T02:38:31;13.43;;;9.07;;
7621;SDS011;3852;52.284;8.032;2022-12-07T02:41:47;13.50;;;8.37;;
7621;SDS011;3852;52.284;8.032;2022-12-07T02:44:23;14.47;;;8.53;;
7621;SDS011;3852;52.284;8.032;2022-12-07T02:47:00;12.20;;;7.30;;
7621;SDS011;3852;52.284;8.032;2022-12-07T02:49:33;11.67;;;7.63;;
7621;SDS011;3852;52.284;8.032;2022-12-07T02:52:00;7.77;;;6.30;;
7621;SDS011;3852;52.284;8.032;2022-12-07T02:54:26;10.60;;;6.80;;
7621;SDS011;3852;52.284;8.032;2022-12-07T03:00:07;8.13;;;6.30;;
7621;SDS011;3852;52.284;8.032;2022-12-07T03:02:45;11.47;;;6.60;;
7621;SDS011;3852;52.284;8.032;2022-12-07T03:08:29;13.37;;;6.77;;
7621;SDS011;3852;52.284;8.032;2022-12-07T03:11:16;11.67;;;5.80;;
7621;SDS011;3852;52.284;8.032;2022-12-07T03:14:18;13.60;;;5.70;;
7621;SDS011;3852;52.284;8.032;2022-12-07T03:17:09;15.27;;;5.70;;
7621;SDS011;3852;52.284;8.032;2022-12-07T03:19:42;11.57;;;5.30;;
7621;SDS011;3852;52.284;8.032;2022-12-07T03:22:10;8.00;;;5.20;;
7621;SDS011;3852;52.284;8.032;2022-12-07T03:24:42;16.20;;;5.30;;
7621;SDS011;3852;52.284;8.032;2022-12-07T03:27:16;9.33;;;4.60;;
7621;SDS011;3852;52.284;8.032;2022-12-07T03:29:47;13.77;;;5.50;;
7621;SDS011;3852;52.284;8.032;2022-12-07T03:37:46;8.10;;;4.50;;
7621;SDS011;3852;52.284;8.032;2022-12-07T03:40:33;10.17;;;3.87;;
7621;SDS011;3852;52.284;8.032;2022-12-07T03:43:06;11.13;;;4.43;;
7621;SDS011;3852;52.284;8.032;2022-12-07T03:45:40;9.87;;;3.83;;
7621;SDS011;3852;52.284;8.032;2022-12-07T03:50:52;7.20;;;3.70;;
7621;SDS011;3852;52.284;8.032;2022-12-07T03:56:37;10.10;;;3.73;;
7621;SDS011;3852;52.284;8.032;2022-12-07T03:59:05;7.90;;;3.57;;
7621;SDS011;3852;52.284;8.032;2022-12-07T04:01:31;9.87;;;4.27;;
7621;SDS011;3852;52.284;8.032;2022-12-07T04:03:57;8.97;;;3.77;;
7621;SDS011;3852;52.284;8.032;2022-12-07T04:06:23;10.33;;;4.00;;
7621;SDS011;3852;52.284;8.032;2022-12-07T04:08:49;9.70;;;3.70;;
7621;SDS011;3852;52.284;8.032;2022-12-07T04:11:15;9.57;;;3.97;;
7621;SDS011;3852;52.284;8.032;2022-12-07T04:13:40;8.97;;;3.70;;
7621;SDS011;3852;52.284;8.032;2022-12-07T04:16:25;11.67;;;3.70;;
7621;SDS011;3852;52.284;8.032;2022-12-07T04:18:51;8.20;;;3.40;;
7621;SDS011;3852;52.284;8.032;2022-12-07T04:21:17;8.23;;;3.27;;
7621;SDS011;3852;52.284;8.032;2022-12-07T04:23:42;7.43;;;3.27;;
7621;SDS011;3852;52.284;8.032;2022-12-07T04:26:08;5.80;;;3.33;;
7621;SDS011;3852;52.284;8.032;2022-12-07T04:28:34;10.50;;;3.40;;
7621;SDS011;3852;52.284;8.032;2022-12-07T04:31:00;7.73;;;3.50;;
7621;SDS011;3852;52.284;8.032;2022-12-07T04:33:26;7.97;;;3.00;;
7621;SDS011;3852;52.284;8.032;2022-12-07T04:35:51;6.57;;;3.13;;
7621;SDS011;3852;52.284;8.032;2022-12-07T04:38:17;10.47;;;3.40;;
7621;SDS011;3852;52.284;8.032;2022-12-07T04:40:43;10.60;;;3.43;;
7621;SDS011;3852;52.284;8.032;2022-12-07T04:43:09;6.97;;;3.40;;
7621;SDS011;3852;52.284;8.032;2022-12-07T04:45:35;6.33;;;3.27;;
7621;SDS011;3852;52.284;8.032;2022-12-07T04:48:00;6.80;;;2.83;;
7621;SDS011;3852;52.284;8.032;2022-12-07T04:50:26;10.10;;;3.17;;
7621;SDS011;3852;52.284;8.032;2022-12-07T04:52:52;6.57;;;2.80;;
7621;SDS011;3852;52.284;8.032;2022-12-07T04:55:18;10.23;;;3.03;;
7621;SDS011;3852;52.284;8.032;2022-12-07T04:57:44;6.10;;;2.67;;
7621;SDS011;3852;52.284;8.032;2022-12-07T05:00:10;9.67;;;3.43;;
7621;SDS011;3852;52.284;8.032;2022-12-07T05:02:36;6.40;;;3.00;;
7621;SDS011;3852;52.284;8.032;2022-12-07T05:05:02;6.27;;;3.27;;
7621;SDS011;3852;52.284;8.032;2022-12-07T05:07:28;7.97;;;3.20;;
7621;SDS011;3852;52.284;8.032;2022-12-07T05:09:54;7.53;;;2.93;;
7621;SDS011;3852;52.284;8.032;2022-12-07T05:12:19;7.13;;;2.60;;
7621;SDS011;3852;52.284;8.032;2022-12-07T05:14:45;7.47;;;2.67;;
7621;SDS011;3852;52.284;8.032;2022-12-07T05:17:11;8.03;;;2.77;;
7621;SDS011;3852;52.284;8.032;2022-12-07T05:19:37;6.10;;;3.00;;
7621;SDS011;3852;52.284;8.032;2022-12-07T05:22:03;4.80;;;2.80;;
7621;SDS011;3852;52.284;8.032;2022-12-07T05:24:28;11.43;;;2.77;;
7621;SDS011;3852;52.284;8.032;2022-12-07T05:26:54;9.53;;;2.97;;
7621;SDS011;3852;52.284;8.032;2022-12-07T05:29:20;6.70;;;2.77;;
7621;SDS011;3852;52.284;8.032;2022-12-07T05:31:46;9.53;;;2.43;;
7621;SDS011;3852;52.284;8.032;2022-12-07T05:34:11;4.27;;;2.30;;
7621;SDS011;3852;52.284;8.032;2022-12-07T05:36:38;13.20;;;3.73;;
7621;SDS011;3852;52.284;8.032;2022-12-07T05:39:06;6.27;;;2.90;;
7621;SDS011;3852;52.284;8.032;2022-12-07T05:41:32;5.73;;;2.70;;
7621;SDS011;3852;52.284;8.032;2022-12-07T05:44:16;6.57;;;2.80;;
7621;SDS011;3852;52.284;8.032;2022-12-07T05:46:42;5.97;;;2.50;;
7621;SDS011;3852;52.284;8.032;2022-12-07T05:49:08;7.70;;;2.83;;
7621;SDS011;3852;52.284;8.032;2022-12-07T05:51:36;5.47;;;3.00;;
7621;SDS011;3852;52.284;8.032;2022-12-07T05:54:02;8.47;;;2.83;;
7621;SDS011;3852;52.284;8.032;2022-12-07T05:56:28;6.73;;;2.80;;
7621;SDS011;3852;52.284;8.032;2022-12-07T05:58:54;7.77;;;3.40;;
7621;SDS011;3852;52.284;8.032;2022-12-07T06:01:56;7.90;;;2.50;;
7621;SDS011;3852;52.284;8.032;2022-12-07T06:04:32;6.50;;;2.97;;
7621;SDS011;3852;52.284;8.032;2022-12-07T06:07:04;7.33;;;2.77;;
7621;SDS011;3852;52.284;8.032;2022-12-07T06:09:30;5.83;;;2.70;;
7621;SDS011;3852;52.284;8.032;2022-12-07T06:11:57;5.50;;;2.63;;
7621;SDS011;3852;52.284;8.032;2022-12-07T06:14:43;6.40;;;2.57;;
7621;SDS011;3852;52.284;8.032;2022-12-07T06:17:09;5.73;;;2.63;;
7621;SDS011;3852;52.284;8.032;2022-12-07T06:19:36;8.57;;;3.00;;
7621;SDS011;3852;52.284;8.032;2022-12-07T06:22:02;7.77;;;2.50;;
7621;SDS011;3852;52.284;8.032;2022-12-07T06:24:29;5.77;;;2.90;;
7621;SDS011;3852;52.284;8.032;2022-12-07T06:26:59;4.23;;;2.80;;
7621;SDS011;3852;52.284;8.032;2022-12-07T06:29:25;8.20;;;3.27;;
7621;SDS011;3852;52.284;8.032;2022-12-07T06:31:50;6.20;;;3.00;;
7621;SDS011;3852;52.284;8.032;2022-12-07T06:34:18;6.10;;;3.00;;
7621;SDS011;3852;52.284;8.032;2022-12-07T06:36:48;6.93;;;2.73;;
7621;SDS011;3852;52.284;8.032;2022-12-07T06:39:20;5.20;;;2.37;;
7621;SDS011;3852;52.284;8.032;2022-12-07T06:41:51;8.47;;;2.50;;
7621;SDS011;3852;52.284;8.032;2022-12-07T06:44:19;7.47;;;2.40;;
7621;SDS011;3852;52.284;8.032;2022-12-07T06:46:45;7.23;;;2.63;;
7621;SDS011;3852;52.284;8.032;2022-12-07T06:49:11;6.97;;;2.80;;
7621;SDS011;3852;52.284;8.032;2022-12-07T06:51:37;7.53;;;3.30;;
7621;SDS011;3852;52.284;8.032;2022-12-07T06:54:09;7.07;;;2.83;;
7621;SDS011;3852;52.284;8.032;2022-12-07T06:56:37;6.37;;;3.30;;
7621;SDS011;3852;52.284;8.032;2022-12-07T06:59:03;8.47;;;2.80;;
7621;SDS011;3852;52.284;8.032;2022-12-07T07:01:31;6.03;;;3.30;;
7621;SDS011;3852;52.284;8.032;2022-12-07T07:03:59;6.00;;;2.87;;
7621;SDS011;3852;52.284;8.032;2022-12-07T07:06:25;9.53;;;2.90;;
7621;SDS011;3852;52.284;8.032;2022-12-07T07:08:51;4.63;;;3.03;;
7621;SDS011;3852;52.284;8.032;2022-12-07T07:11:17;13.77;;;3.80;;
7621;SDS011;3852;52.284;8.032;2022-12-07T07:13:44;6.60;;;3.30;;
7621;SDS011;3852;52.284;8.032;2022-12-07T07:16:10;11.70;;;3.50;;
7621;SDS011;3852;52.284;8.032;2022-12-07T07:18:37;7.23;;;3.30;;
7621;SDS011;3852;52.284;8.032;2022-12-07T07:21:03;6.67;;;3.40;;
7621;SDS011;3852;52.284;8.032;2022-12-07T07:23:29;5.83;;;3.40;;
7621;SDS011;3852;52.284;8.032;2022-12-07T07:25:55;6.87;;;3.60;;
7621;SDS011;3852;52.284;8.032;2022-12-07T07:28:21;8.03;;;3.20;;
7621;SDS011;3852;52.284;8.032;2022-12-07T07:30:47;11.27;;;3.20;;
7621;SDS011;3852;52.284;8.032;2022-12-07T07:33:13;10.17;;;3.40;;
7621;SDS011;3852;52.284;8.032;2022-12-07T07:35:40;10.03;;;3.50;;
7621;SDS011;3852;52.284;8.032;2022-12-07T07:38:06;8.27;;;3.57;;
7621;SDS011;3852;52.284;8.032;2022-12-07T07:40:32;7.67;;;3.97;;
7621;SDS011;3852;52.284;8.032;2022-12-07T07:42:58;11.57;;;3.10;;
7621;SDS011;3852;52.284;8.032;2022-12-07T07:45:25;6.00;;;3.17;;
7621;SDS011;3852;52.284;8.032;2022-12-07T07:47:52;6.23;;;2.93;;
7621;SDS011;3852;52.284;8.032;2022-12-07T07:50:18;7.43;;;3.40;;
7621;SDS011;3852;52.284;8.032;2022-12-07T07:52:45;5.03;;;2.80;;
7621;SDS011;3852;52.284;8.032;2022-12-07T07:55:11;7.47;;;2.77;;
7621;SDS011;3852;52.284;8.032;2022-12-07T07:57:38;7.80;;;2.97;;
7621;SDS011;3852;52.284;8.032;2022-12-07T08:00:05;6.57;;;2.97;;
7621;SDS011;3852;52.284;8.032;2022-12-07T08:02:36;7.50;;;3.20;;
7621;SDS011;3852;52.284;8.032;2022-12-07T08:05:02;7.97;;;3.03;;
7621;SDS011;3852;52.284;8.032;2022-12-07T08:07:28;10.13;;;3.40;;
7621;SDS011;3852;52.284;8.032;2022-12-07T08:09:54;7.37;;;3.10;;
7621;SDS011;3852;52.284;8.032;2022-12-07T08:12:20;11.80;;;3.70;;
7621;SDS011;3852;52.284;8.032;2022-12-07T08:14:45;4.77;;;3.47;;
7621;SDS011;3852;52.284;8.032;2022-12-07T08:17:12;10.23;;;3.70;;
7621;SDS011;3852;52.284;8.032;2022-12-07T08:19:38;6.33;;;3.20;;
7621;SDS011;3852;52.284;8.032;2022-12-07T08:22:04;7.97;;;3.40;;
7621;SDS011;3852;52.284;8.032;2022-12-07T08:24:32;6.33;;;3.30;;
7621;SDS011;3852;52.284;8.032;2022-12-07T08:26:59;9.67;;;4.13;;
7621;SDS011;3852;52.284;8.032;2022-12-07T08:29:25;9.10;;;3.73;;
7621;SDS011;3852;52.284;8.032;2022-12-07T08:31:51;8.77;;;3.73;;
7621;SDS011;3852;52.284;8.032;2022-12-07T08:34:17;10.03;;;3.23;;
7621;SDS011;3852;52.284;8.032;2022-12-07T08:36:43;11.23;;;4.03;;
7621;SDS011;3852;52.284;8.032;2022-12-07T08:39:09;8.63;;;3.27;;
7621;SDS011;3852;52.284;8.032;2022-12-07T08:41:35;9.37;;;3.57;;
7621;SDS011;3852;52.284;8.032;2022-12-07T08:44:01;7.07;;;3.23;;
7621;SDS011;3852;52.284;8.032;2022-12-07T08:46:37;8.40;;;3.43;;
7621;SDS011;3852;52.284;8.032;2022-12-07T08:49:18;7.77;;;3.50;;
7621;SDS011;3852;52.284;8.032;2022-12-07T08:51:48;7.27;;;3.50;;
7621;SDS011;3852;52.284;8.032;2022-12-07T08:54:17;7.60;;;3.60;;
7621;SDS011;3852;52.284;8.032;2022-12-07T08:56:44;12.93;;;3.87;;
7621;SDS011;3852;52.284;8.032;2022-12-07T08:59:13;11.13;;;3.70;;
7621;SDS011;3852;52.284;8.032;2022-12-07T09:01:41;8.17;;;3.53;;
7621;SDS011;3852;52.284;8.032;2022-12-07T09:04:07;10.07;;;3.40;;
7621;SDS011;3852;52.284;8.032;2022-12-07T09:06:33;8.20;;;3.23;;
7621;SDS011;3852;52.284;8.032;2022-12-07T09:08:59;12.23;;;3.53;;
7621;SDS011;3852;52.284;8.032;2022-12-07T09:11:27;9.43;;;3.53;;
7621;SDS011;3852;52.284;8.032;2022-12-07T09:13:55;9.97;;;3.50;;
7621;SDS011;3852;52.284;8.032;2022-12-07T09:16:21;6.73;;;3.67;;
7621;SDS011;3852;52.284;8.032;2022-12-07T09:18:47;6.10;;;3.53;;
7621;SDS011;3852;52.284;8.032;2022-12-07T09:21:12;12.40;;;4.07;;
7621;SDS011;3852;52.284;8.032;2022-12-07T09:23:38;5.93;;;3.73;;
7621;SDS011;3852;52.284;8.032;2022-12-07T09:26:06;13.00;;;4.30;;
7621;SDS011;3852;52.284;8.032;2022-12-07T09:28:32;11.33;;;3.93;;
7621;SDS011;3852;52.284;8.032;2022-12-07T09:30:58;11.43;;;4.70;;
7621;SDS011;3852;52.284;8.032;2022-12-07T09:33:23;7.03;;;3.80;;
7621;SDS011;3852;52.284;8.032;2022-12-07T09:35:50;7.10;;;4.00;;
7621;SDS011;3852;52.284;8.032;2022-12-07T09:38:17;8.03;;;4.10;;
7621;SDS011;3852;52.284;8.032;2022-12-07T09:40:45;6.67;;;4.50;;
7621;SDS011;3852;52.284;8.032;2022-12-07T09:43:16;10.83;;;3.83;;
7621;SDS011;3852;52.284;8.032;2022-12-07T09:45:47;11.83;;;3.90;;
7621;SDS011;3852;52.284;8.032;2022-12-07T09:48:17;10.70;;;4.17;;
7621;SDS011;3852;52.284;8.032;2022-12-07T09:51:02;11.83;;;3.70;;
7621;SDS011;3852;52.284;8.032;2022-12-07T09:53:39;7.30;;;4.00;;
7621;SDS011;3852;52.284;8.032;2022-12-07T09:56:06;8.40;;;3.50;;
7621;SDS011;3852;52.284;8.032;2022-12-07T09:58:37;9.87;;;4.03;;
7621;SDS011;3852;52.284;8.032;2022-12-07T10:01:19;9.57;;;4.10;;
7621;SDS011;3852;52.284;8.032;2022-12-07T10:06:20;12.73;;;3.80;;
7621;SDS011;3852;52.284;8.032;2022-12-07T10:08:46;13.20;;;3.70;;
7621;SDS011;3852;52.284;8.032;2022-12-07T10:11:12;7.87;;;3.50;;
7621;SDS011;3852;52.284;8.032;2022-12-07T10:19:20;7.47;;;3.10;;
7621;SDS011;3852;52.284;8.032;2022-12-07T10:22:02;5.30;;;3.00;;
7621;SDS011;3852;52.284;8.032;2022-12-07T10:24:41;5.87;;;2.83;;
7621;SDS011;3852;52.284;8.032;2022-12-07T10:27:29;7.20;;;2.77;;
7621;SDS011;3852;52.284;8.032;2022-12-07T10:29:57;9.93;;;4.43;;
7621;SDS011;3852;52.284;8.032;2022-12-07T10:32:29;8.30;;;3.13;;
7621;SDS011;3852;52.284;8.032;2022-12-07T10:37:53;9.33;;;2.90;;
7621;SDS011;3852;52.284;8.032;2022-12-07T10:40:34;5.17;;;2.50;;
7621;SDS011;3852;52.284;8.032;2022-12-07T10:51:26;11.93;;;2.20;;
7621;SDS011;3852;52.284;8.032;2022-12-07T10:54:44;6.37;;;2.60;;
7621;SDS011;3852;52.284;8.032;2022-12-07T11:00:22;7.77;;;2.17;;
7621;SDS011;3852;52.284;8.032;2022-12-07T11:05:52;5.93;;;2.40;;
7621;SDS011;3852;52.284;8.032;2022-12-07T11:22:48;6.73;;;2.20;;
7621;SDS011;3852;52.284;8.032;2022-12-07T11:28:34;11.60;;;2.40;;
7621;SDS011;3852;52.284;8.032;2022-12-07T11:31:36;5.97;;;2.47;;
7621;SDS011;3852;52.284;8.032;2022-12-07T11:36:56;5.47;;;2.47;;
7621;SDS011;3852;52.284;8.032;2022-12-07T11:39:28;5.10;;;2.13;;
7621;SDS011;3852;52.284;8.032;2022-12-07T11:42:02;6.00;;;1.90;;
7621;SDS011;3852;52.284;8.032;2022-12-07T11:44:38;5.17;;;2.27;;
7621;SDS011;3852;52.284;8.032;2022-12-07T11:56:12;5.93;;;1.97;;
7621;SDS011;3852;52.284;8.032;2022-12-07T12:06:36;8.57;;;1.87;;
7621;SDS011;3852;52.284;8.032;2022-12-07T12:09:05;4.80;;;1.97;;
7621;SDS011;3852;52.284;8.032;2022-12-07T12:23:19;3.30;;;1.70;;
7621;SDS011;3852;52.284;8.032;2022-12-07T12:25:59;2.77;;;1.53;;
7621;SDS011;3852;52.284;8.032;2022-12-07T12:33:53;5.27;;;1.60;;
7621;SDS011;3852;52.284;8.032;2022-12-07T12:46:46;6.30;;;1.60;;
7621;SDS011;3852;52.284;8.032;2022-12-07T12:51:49;5.83;;;1.80;;
7621;SDS011;3852;52.284;8.032;2022-12-07T12:54:32;7.13;;;2.40;;
7621;SDS011;3852;52.284;8.032;2022-12-07T12:57:09;5.60;;;1.63;;
7621;SDS011;3852;52.284;8.032;2022-12-07T13:05:01;5.33;;;1.93;;
7621;SDS011;3852;52.284;8.032;2022-12-07T13:23:38;4.10;;;1.83;;
7621;SDS011;3852;52.284;8.032;2022-12-07T13:28:49;5.33;;;2.27;;
7621;SDS011;3852;52.284;8.032;2022-12-07T13:31:30;4.63;;;1.90;;
7621;SDS011;3852;52.284;8.032;2022-12-07T13:34:32;4.60;;;2.27;;
7621;SDS011;3852;52.284;8.032;2022-12-07T13:40:01;5.93;;;1.53;;
7621;SDS011;3852;52.284;8.032;2022-12-07T13:42:44;5.23;;;2.30;;
7621;SDS011;3852;52.284;8.032;2022-12-07T13:48:16;7.13;;;2.23;;
7621;SDS011;3852;52.284;8.032;2022-12-07T13:51:00;4.20;;;1.97;;
7621;SDS011;3852;52.284;8.032;2022-12-07T13:53:29;4.97;;;2.10;;
7621;SDS011;3852;52.284;8.032;2022-12-07T13:55:56;3.00;;;1.60;;
7621;SDS011;3852;52.284;8.032;2022-12-07T13:58:26;4.80;;;2.10;;
7621;SDS011;3852;52.284;8.032;2022-12-07T14:00:56;5.47;;;2.33;;
7621;SDS011;3852;52.284;8.032;2022-12-07T14:03:25;7.30;;;1.60;;
7621;SDS011;3852;52.284;8.032;2022-12-07T14:08:50;4.43;;;2.00;;
7621;SDS011;3852;52.284;8.032;2022-12-07T14:11:42;5.07;;;1.90;;
7621;SDS011;3852;52.284;8.032;2022-12-07T14:14:10;6.20;;;1.80;;
7621;SDS011;3852;52.284;8.032;2022-12-07T14:16:54;5.17;;;2.00;;
7621;SDS011;3852;52.284;8.032;2022-12-07T14:30:24;9.40;;;2.30;;
7621;SDS011;3852;52.284;8.032;2022-12-07T14:32:56;3.43;;;1.83;;
7621;SDS011;3852;52.284;8.032;2022-12-07T14:35:30;5.17;;;1.87;;
7621;SDS011;3852;52.284;8.032;2022-12-07T14:37:57;7.33;;;2.50;;
7621;SDS011;3852;52.284;8.032;2022-12-07T14:40:24;4.07;;;2.20;;
7621;SDS011;3852;52.284;8.032;2022-12-07T14:43:05;10.00;;;2.30;;
7621;SDS011;3852;52.284;8.032;2022-12-07T14:45:36;6.03;;;1.97;;
7621;SDS011;3852;52.284;8.032;2022-12-07T14:48:02;2.13;;;1.10;;
7621;SDS011;3852;52.284;8.032;2022-12-07T14:50:28;2.37;;;1.10;;
7621;SDS011;3852;52.284;8.032;2022-12-07T14:52:59;3.33;;;1.10;;
7621;SDS011;3852;52.284;8.032;2022-12-07T14:55:43;1.50;;;1.10;;
7621;SDS011;3852;52.284;8.032;2022-12-07T14:58:16;2.07;;;1.23;;
7621;SDS011;3852;52.284;8.032;2022-12-07T15:00:43;1.93;;;1.20;;
7621;SDS011;3852;52.284;8.032;2022-12-07T15:03:10;2.60;;;0.93;;
7621;SDS011;3852;52.284;8.032;2022-12-07T15:05:38;0.83;;;0.83;;
7621;SDS011;3852;52.284;8.032;2022-12-07T15:08:04;1.23;;;0.90;;
7621;SDS011;3852;52.284;8.032;2022-12-07T15:10:31;1.57;;;1.20;;
7621;SDS011;3852;52.284;8.032;2022-12-07T15:13:01;1.40;;;1.30;;
7621;SDS011;3852;52.284;8.032;2022-12-07T15:15:50;3.40;;;1.80;;
7621;SDS011;3852;52.284;8.032;2022-12-07T15:18:18;4.63;;;2.53;;
7621;SDS011;3852;52.284;8.032;2022-12-07T15:20:45;3.00;;;1.53;;
7621;SDS011;3852;52.284;8.032;2022-12-07T15:23:11;2.37;;;2.17;;
7621;SDS011;3852;52.284;8.032;2022-12-07T15:25:45;2.50;;;2.10;;
7621;SDS011;3852;52.284;8.032;2022-12-07T15:28:13;1.80;;;1.70;;
7621;SDS011;3852;52.284;8.032;2022-12-07T15:30:40;3.63;;;2.30;;
7621;SDS011;3852;52.284;8.032;2022-12-07T15:33:08;2.47;;;1.60;;
7621;SDS011;3852;52.284;8.032;2022-12-07T15:35:39;3.50;;;1.70;;
7621;SDS011;3852;52.284;8.032;2022-12-07T15:38:06;3.80;;;1.97;;
7621;SDS011;3852;52.284;8.032;2022-12-07T15:40:32;4.30;;;1.90;;
7621;SDS011;3852;52.284;8.032;2022-12-07T15:42:58;4.73;;;2.50;;
7621;SDS011;3852;52.284;8.032;2022-12-07T15:45:23;3.40;;;2.30;;
7621;SDS011;3852;52.284;8.032;2022-12-07T15:47:49;3.57;;;2.40;;
7621;SDS011;3852;52.284;8.032;2022-12-07T15:50:15;5.83;;;2.37;;
7621;SDS011;3852;52.284;8.032;2022-12-07T15:52:42;4.77;;;2.23;;
7621;SDS011;3852;52.284;8.032;2022-12-07T15:55:09;8.03;;;2.77;;
7621;SDS011;3852;52.284;8.032;2022-12-07T15:57:36;6.43;;;2.57;;
7621;SDS011;3852;52.284;8.032;2022-12-07T16:00:04;6.20;;;3.17;;
7621;SDS011;3852;52.284;8.032;2022-12-07T16:02:32;6.10;;;2.70;;
7621;SDS011;3852;52.284;8.032;2022-12-07T16:04:58;5.10;;;2.90;;
7621;SDS011;3852;52.284;8.032;2022-12-07T16:07:24;6.03;;;2.90;;
7621;SDS011;3852;52.284;8.032;2022-12-07T16:09:49;7.77;;;3.00;;
7621;SDS011;3852;52.284;8.032;2022-12-07T16:12:15;6.53;;;2.90;;
7621;SDS011;3852;52.284;8.032;2022-12-07T16:14:42;9.67;;;3.20;;
7621;SDS011;3852;52.284;8.032;2022-12-07T16:17:08;7.93;;;2.63;;
7621;SDS011;3852;52.284;8.032;2022-12-07T16:19:35;7.07;;;2.60;;
7621;SDS011;3852;52.284;8.032;2022-12-07T16:22:02;6.17;;;3.17;;
7621;SDS011;3852;52.284;8.032;2022-12-07T16:24:29;9.13;;;2.63;;
7621;SDS011;3852;52.284;8.032;2022-12-07T16:26:56;8.40;;;3.17;;
7621;SDS011;3852;52.284;8.032;2022-12-07T16:29:22;8.60;;;2.70;;
7621;SDS011;3852;52.284;8.032;2022-12-07T16:31:48;9.47;;;3.30;;
7621;SDS011;3852;52.284;8.032;2022-12-07T16:34:14;9.00;;;3.13;;
7621;SDS011;3852;52.284;8.032;2022-12-07T16:36:40;10.43;;;3.47;;
7621;SDS011;3852;52.284;8.032;2022-12-07T16:39:06;8.10;;;3.40;;
7621;SDS011;3852;52.284;8.032;2022-12-07T16:41:33;9.27;;;3.13;;
7621;SDS011;3852;52.284;8.032;2022-12-07T16:44:06;9.07;;;3.23;;
7621;SDS011;3852;52.284;8.032;2022-12-07T16:46:35;8.23;;;3.20;;
7621;SDS011;3852;52.284;8.032;2022-12-07T16:49:02;9.63;;;3.60;;
7621;SDS011;3852;52.284;8.032;2022-12-07T16:51:28;11.73;;;4.00;;
7621;SDS011;3852;52.284;8.032;2022-12-07T16:53:59;5.53;;;3.70;;
7621;SDS011;3852;52.284;8.032;2022-12-07T16:56:25;8.83;;;3.53;;
7621;SDS011;3852;52.284;8.032;2022-12-07T16:58:51;9.33;;;3.63;;
7621;SDS011;3852;52.284;8.032;2022-12-07T17:01:18;10.27;;;3.43;;
7621;SDS011;3852;52.284;8.032;2022-12-07T17:03:47;6.10;;;3.17;;
7621;SDS011;3852;52.284;8.032;2022-12-07T17:06:16;7.50;;;3.47;;
7621;SDS011;3852;52.284;8.032;2022-12-07T17:08:46;12.23;;;3.33;;
7621;SDS011;3852;52.284;8.032;2022-12-07T17:11:13;9.57;;;3.73;;
7621;SDS011;3852;52.284;8.032;2022-12-07T17:13:42;8.57;;;3.50;;
7621;SDS011;3852;52.284;8.032;2022-12-07T17:16:27;9.97;;;3.60;;
7621;SDS011;3852;52.284;8.032;2022-12-07T17:18:53;7.87;;;4.17;;
7621;SDS011;3852;52.284;8.032;2022-12-07T17:21:19;10.10;;;4.30;;
7621;SDS011;3852;52.284;8.032;2022-12-07T17:23:45;9.83;;;5.70;;
7621;SDS011;3852;52.284;8.032;2022-12-07T17:26:13;10.30;;;5.17;;
7621;SDS011;3852;52.284;8.032;2022-12-07T17:28:43;8.53;;;6.37;;
7621;SDS011;3852;52.284;8.032;2022-12-07T17:31:09;7.70;;;6.63;;
7621;SDS011;3852;52.284;8.032;2022-12-07T17:33:38;8.77;;;6.30;;
7621;SDS011;3852;52.284;8.032;2022-12-07T17:36:14;7.97;;;6.00;;
7621;SDS011;3852;52.284;8.032;2022-12-07T17:38:49;5.97;;;4.30;;
7621;SDS011;3852;52.284;8.032;2022-12-07T17:41:23;9.10;;;5.67;;
7621;SDS011;3852;52.284;8.032;2022-12-07T17:44:11;7.30;;;4.90;;
7621;SDS011;3852;52.284;8.032;2022-12-07T17:46:43;7.40;;;5.10;;
7621;SDS011;3852;52.284;8.032;2022-12-07T17:49:12;12.23;;;4.97;;
7621;SDS011;3852;52.284;8.032;2022-12-07T17:51:38;10.07;;;5.57;;
7621;SDS011;3852;52.284;8.032;2022-12-07T17:54:23;7.57;;;5.03;;
7621;SDS011;3852;52.284;8.032;2022-12-07T17:56:49;7.40;;;5.87;;
7621;SDS011;3852;52.284;8.032;2022-12-07T17:59:15;9.20;;;5.70;;
7621;SDS011;3852;52.284;8.032;2022-12-07T18:01:41;11.50;;;6.10;;
7621;SDS011;3852;52.284;8.032;2022-12-07T18:04:07;9.97;;;6.43;;
7621;SDS011;3852;52.284;8.032;2022-12-07T18:06:33;12.40;;;7.50;;
7621;SDS011;3852;52.284;8.032;2022-12-07T18:09:00;12.23;;;6.70;;
7621;SDS011;3852;52.284;8.032;2022-12-07T18:11:27;17.37;;;8.73;;
7621;SDS011;3852;52.284;8.032;2022-12-07T18:13:53;17.23;;;9.90;;
7621;SDS011;3852;52.284;8.032;2022-12-07T18:16:20;17.30;;;12.23;;
7621;SDS011;3852;52.284;8.032;2022-12-07T18:18:49;17.77;;;9.83;;